Weather at Ste Léocadie Airfield

Public forecast

Using degrees Celsius for public forecast. Weather courtesy of forecast.io.

Closest aviation weather report (METAR) to Ste Léocadie Airfield

Report is more than 6 hours old.

Closest report is Pirineus - la Seu d'Urgel Airport, 27.5 nm (50.9 km) WSW. Retrieved 2020/09/20 17:00 UTC (6 hours ago):

LESU 201700Z 19008KT 120V230 9999 SCT060 22/10 Q1016

Closest aviation forecast (TAF) to Ste Léocadie Airfield

Forecast is more than 6 hours old.

Closest forecast is Pirineus - la Seu d'Urgel Airport, 27.5 nm (50.9 km) WSW. Retrieved 2020/09/20 15:00 UTC (8 hours ago):

TAF LESU 201400Z 2015/2115 22010KT 9999 SCT050 TX23/2114Z TN10/2105Z PROB30 TEMPO 2015/2024 TSRA FEW040CB BKN050 BECMG 2018/2020 VRB04KT PROB40 TEMPO 2111/2115 VRB06KT 4000 TSRA SCT040CB BKN050